createdAt,value
2023-03-07T00:02:57.160Z,0.14
2023-03-07T00:13:04.285Z,0.07
2023-03-07T00:23:07.881Z,-0.09
2023-03-07T00:33:12.847Z,-0.21
2023-03-07T00:43:16.788Z,-0.25
2023-03-07T00:53:21.095Z,-0.31
2023-03-07T01:03:25.113Z,-0.36
2023-03-07T01:13:30.838Z,-0.49
2023-03-07T01:23:34.900Z,-0.62
2023-03-07T01:33:38.838Z,-0.70
2023-03-07T01:43:45.282Z,-0.77
2023-03-07T01:53:59.032Z,-0.86
2023-03-07T02:04:12.525Z,-0.94
2023-03-07T02:14:18.736Z,-0.99
2023-03-07T02:25:13.857Z,-0.98
2023-03-07T02:35:23.705Z,-1.01
2023-03-07T02:45:29.801Z,-1.12
2023-03-07T02:55:33.928Z,-1.23
2023-03-07T03:05:39.710Z,-1.35
2023-03-07T03:15:43.875Z,-1.43
2023-03-07T03:25:58.468Z,-1.45
2023-03-07T03:36:13.038Z,-1.46
2023-03-07T03:46:19.798Z,-1.60
2023-03-07T03:56:24.548Z,-1.59
2023-03-07T04:06:32.570Z,-1.61
2023-03-07T04:16:38.555Z,-1.64
2023-03-07T04:26:44.360Z,-1.72
2023-03-07T04:36:48.324Z,-1.67
2023-03-07T04:46:52.602Z,-1.65
2023-03-07T04:57:00.454Z,-1.60
2023-03-07T05:07:07.344Z,-1.64
2023-03-07T05:17:11.830Z,-1.55
2023-03-07T05:27:16.756Z,-1.35
2023-03-07T05:37:22.470Z,-1.16
2023-03-07T05:47:26.947Z,-0.65
2023-03-07T05:57:32.681Z,-0.37
2023-03-07T06:07:37.791Z,1.02
2023-03-07T06:17:43.249Z,1.00
2023-03-07T06:27:47.163Z,1.03
2023-03-07T06:37:53.394Z,1.30
2023-03-07T06:47:57.809Z,1.46
2023-03-07T06:58:01.817Z,1.53
2023-03-07T07:08:07.291Z,1.70
2023-03-07T07:18:14.783Z,1.77
2023-03-07T07:28:19.658Z,1.94
2023-03-07T07:38:24.048Z,2.25
2023-03-07T07:48:27.792Z,2.35
2023-03-07T07:58:31.630Z,2.86
2023-03-07T08:08:37.353Z,2.87
2023-03-07T08:18:41.924Z,2.96
2023-03-07T08:28:45.965Z,3.07
2023-03-07T08:38:53.596Z,3.08
2023-03-07T08:48:57.248Z,3.29
2023-03-07T08:59:02.572Z,3.67
2023-03-07T09:09:06.231Z,3.71
2023-03-07T09:19:10.235Z,3.72
2023-03-07T09:29:16.250Z,3.64
2023-03-07T09:39:20.171Z,4.04
2023-03-07T09:49:32.449Z,4.30
2023-03-07T09:59:43.606Z,4.48
2023-03-07T10:09:47.336Z,4.60
2023-03-07T10:20:00.653Z,4.67
2023-03-07T10:30:21.093Z,5.02
2023-03-07T10:40:26.767Z,5.55
2023-03-07T10:50:45.485Z,6.15
2023-03-07T11:01:16.405Z,6.13
2023-03-07T11:11:32.461Z,6.17
2023-03-07T11:21:36.492Z,6.33
2023-03-07T11:32:06.001Z,6.44
2023-03-07T11:42:23.469Z,6.39
2023-03-07T11:52:36.277Z,6.20
2023-03-07T12:02:49.765Z,5.78
2023-03-07T12:13:01.221Z,5.38
2023-03-07T12:23:17.492Z,4.80
2023-03-07T12:33:48.459Z,4.34
2023-03-07T12:44:01.364Z,4.28
2023-03-07T12:54:23.838Z,4.48
2023-03-07T13:04:29.003Z,4.41
2023-03-07T13:15:28.042Z,4.38
2023-03-07T13:25:36.370Z,4.25
2023-03-07T13:36:06.153Z,4.02
2023-03-07T13:46:25.032Z,3.79
2023-03-07T13:56:36.640Z,3.67
2023-03-07T14:06:45.377Z,3.56
2023-03-07T14:17:09.296Z,3.63
2023-03-07T14:27:17.265Z,3.58
2023-03-07T14:37:31.320Z,3.73
2023-03-07T14:47:47.309Z,3.86
2023-03-07T14:57:55.058Z,4.04
2023-03-07T15:07:59.080Z,4.10
2023-03-07T15:18:20.939Z,4.20
2023-03-07T15:28:32.117Z,4.25
2023-03-07T15:38:35.738Z,4.26
2023-03-07T15:48:53.265Z,4.35
2023-03-07T15:59:07.423Z,4.49
2023-03-07T16:09:15.567Z,4.47
2023-03-07T16:19:21.087Z,4.45
2023-03-07T16:29:30.200Z,4.53
2023-03-07T16:39:34.092Z,4.55
2023-03-07T16:49:37.795Z,4.48
2023-03-07T16:59:48.186Z,4.51
2023-03-07T17:09:54.106Z,4.48
2023-03-07T17:19:57.912Z,4.47
2023-03-07T17:30:45.233Z,4.35
2023-03-07T17:40:55.024Z,4.11
2023-03-07T17:50:58.543Z,3.84
2023-03-07T18:01:02.286Z,3.62
2023-03-07T18:11:11.770Z,3.35
2023-03-07T18:21:22.343Z,3.01
2023-03-07T18:31:28.994Z,2.85
2023-03-07T18:41:32.938Z,2.64
2023-03-07T18:51:36.796Z,2.48
2023-03-07T19:01:40.626Z,2.38
2023-03-07T19:11:45.645Z,2.39
2023-03-07T19:21:54.667Z,2.44
2023-03-07T19:31:58.429Z,2.41
2023-03-07T19:42:04.627Z,2.07
2023-03-07T19:52:08.390Z,1.88
2023-03-07T20:02:13.921Z,1.82
2023-03-07T20:12:18.018Z,1.52
2023-03-07T20:22:23.716Z,1.28
2023-03-07T20:32:27.801Z,1.13
2023-03-07T20:42:31.644Z,1.05
2023-03-07T20:52:36.346Z,0.95
2023-03-07T21:02:40.499Z,0.90
2023-03-07T21:12:44.225Z,0.89
2023-03-07T21:22:47.869Z,0.82
2023-03-07T21:32:56.084Z,0.74
2023-03-07T21:42:59.797Z,0.64
2023-03-07T21:53:03.907Z,0.56
2023-03-07T22:03:07.672Z,0.53
2023-03-07T22:13:11.418Z,0.50
2023-03-07T22:23:38.388Z,0.45
2023-03-07T22:33:45.829Z,0.33
2023-03-07T22:43:49.914Z,0.33
2023-03-07T22:53:57.904Z,0.24
2023-03-07T23:04:09.171Z,0.18
2023-03-07T23:14:12.934Z,0.02
2023-03-07T23:24:16.704Z,0.09
2023-03-07T23:34:24.313Z,0.28
2023-03-07T23:44:27.947Z,0.45
2023-03-07T23:54:31.684Z,0.63
